Time;durP1;ratioP1;P1;durP2;ratioP2;P2;SDS_P1;SDS_P2;PMS_P1;PMS_P2;Temp;Humidity;BMP_temperature;BMP_pressure;BME280_temperature;BME280_humidity;BME280_pressure;Samples;Min_cycle;Max_cycle;Signal;HPM_P1;HPM_P2
2021/12/16 00:09:08;;;;;;;;;;;25.40;96.10;;;;;;5075294;28;19962;-73
2021/12/16 00:19:35;;;;;;;;;;;25.30;96.50;;;;;;5091404;28;20383;-75
2021/12/16 00:33:39;;;;;;;;;;;26.40;95.50;;;;;;5094318;28;20364;-78
2021/12/16 00:36:06;;;;;;;;;;;26.60;94.80;;;;;;5093474;28;19908;-73
2021/12/16 00:38:33;;;;;;;;;;;26.80;94.50;;;;;;5083403;28;19918;-77
2021/12/16 00:41:01;;;;;;;;;;;26.90;94.40;;;;;;5094314;28;19985;-77
2021/12/16 00:43:39;;;;;;;;;;;27.10;93.90;;;;;;5094212;28;19924;-77
2021/12/16 00:54:14;;;;;;;;;;;27.50;93.60;;;;;;5091095;28;20054;-76
2021/12/16 00:56:42;;;;;;;;;;;27.70;92.50;;;;;;5091508;28;19908;-77
2021/12/16 00:59:11;;;;;;;;;;;27.70;91.90;;;;;;5095313;28;19966;-72
2021/12/16 01:01:52;;;;;;;;;;;27.90;92.00;;;;;;5091330;28;19915;-74
2021/12/16 01:04:48;;;;;;;;;;;28.20;91.80;;;;;;5091173;28;19916;-75
2021/12/16 01:34:43;;;;;;;;;;;28.70;90.40;;;;;;5111833;28;20120;-71
2021/12/16 01:45:28;;;;;;;;;;;28.80;91.40;;;;;;5099842;28;20322;-71
2021/12/16 01:50:40;;;;;;;;;;;27.60;92.30;;;;;;5106797;28;20359;-72
2021/12/16 01:53:20;;;;;;;;;;;27.30;92.60;;;;;;5113987;28;19907;-71
2021/12/16 01:55:54;;;;;;;;;;;27.10;92.80;;;;;;5083971;28;19963;-71
2021/12/16 01:58:24;;;;;;;;;;;27.00;92.90;;;;;;5074908;28;19912;-73
2021/12/16 02:01:30;;;;;;;;;;;27.30;93.10;;;;;;5098417;28;19912;-72
2021/12/16 02:03:51;;;;;;;;;;;27.80;92.90;;;;;;5085500;28;20276;-71
2021/12/16 02:07:20;;;;;;;;;;;28.30;92.30;;;;;;5093582;28;19978;-71
2021/12/16 02:09:23;;;;;;;;;;;28.60;92.10;;;;;;5085489;28;19927;-73
2021/12/16 02:12:10;;;;;;;;;;;28.60;91.60;;;;;;5075153;28;19991;-75
2021/12/16 02:28:54;;;;;;;;;;;27.10;93.30;;;;;;5037584;28;19971;-73
2021/12/16 02:31:45;;;;;;;;;;;27.50;92.60;;;;;;5092942;28;19919;-70
2021/12/16 02:34:26;;;;;;;;;;;27.60;92.80;;;;;;5092785;28;19916;-73
2021/12/16 02:36:54;;;;;;;;;;;27.80;92.40;;;;;;5074895;28;19999;-73
2021/12/16 02:39:24;;;;;;;;;;;27.60;92.10;;;;;;5092241;28;20376;-73
2021/12/16 02:42:04;;;;;;;;;;;27.50;92.40;;;;;;5092253;28;19909;-73
2021/12/16 02:44:38;;;;;;;;;;;27.40;93.00;;;;;;5092246;28;19915;-73
2021/12/16 02:49:55;;;;;;;;;;;27.90;92.20;;;;;;5091785;28;19976;-76
2021/12/16 02:52:22;;;;;;;;;;;28.10;92.20;;;;;;5092655;28;19908;-73
2021/12/16 02:54:49;;;;;;;;;;;28.20;91.80;;;;;;5091997;28;19923;-69
2021/12/16 02:57:16;;;;;;;;;;;28.10;91.90;;;;;;5090573;28;19908;-75
2021/12/16 02:59:44;;;;;;;;;;;28.00;91.50;;;;;;5092907;28;19970;-75
2021/12/16 03:02:14;;;;;;;;;;;28.20;92.00;;;;;;5092990;28;19908;-74
2021/12/16 03:04:41;;;;;;;;;;;28.20;91.00;;;;;;5092855;28;19948;-76
2021/12/16 03:07:10;;;;;;;;;;;28.50;91.00;;;;;;5092444;28;19958;-75
2021/12/16 03:12:42;;;;;;;;;;;28.40;90.70;;;;;;5089156;28;20061;-72
2021/12/16 03:15:20;;;;;;;;;;;28.50;90.50;;;;;;5091509;28;19908;-77
2021/12/16 03:18:04;;;;;;;;;;;28.40;90.40;;;;;;5054626;28;20007;-76
2021/12/16 03:20:45;;;;;;;;;;;28.30;90.20;;;;;;5074044;28;19919;-74
2021/12/16 03:23:31;;;;;;;;;;;28.60;90.00;;;;;;5091031;28;20453;-76
2021/12/16 03:26:43;;;;;;;;;;;28.90;90.20;;;;;;5094788;28;19908;-76
2021/12/16 03:37:17;;;;;;;;;;;29.00;90.40;;;;;;5091184;28;20398;-74
2021/12/16 03:39:55;;;;;;;;;;;28.90;89.10;;;;;;5095592;28;19912;-74
2021/12/16 03:42:32;;;;;;;;;;;28.40;90.20;;;;;;5094088;28;20284;-75
2021/12/16 03:45:05;;;;;;;;;;;27.80;90.70;;;;;;5095046;28;19919;-75
2021/12/16 03:47:38;;;;;;;;;;;27.20;91.20;;;;;;5093668;28;19981;-75
2021/12/16 03:50:22;;;;;;;;;;;26.80;91.50;;;;;;5093029;28;19920;-75
2021/12/16 03:52:49;;;;;;;;;;;26.50;91.70;;;;;;5096148;28;20002;-75
2021/12/16 03:55:16;;;;;;;;;;;26.30;92.20;;;;;;5080435;28;19952;-75
2021/12/16 03:57:43;;;;;;;;;;;26.40;92.00;;;;;;5096137;28;19912;-75
2021/12/16 04:00:15;;;;;;;;;;;26.70;91.70;;;;;;5096370;28;20269;-75
2021/12/16 04:02:42;;;;;;;;;;;26.80;91.70;;;;;;5096223;28;19914;-75
2021/12/16 04:05:09;;;;;;;;;;;27.10;92.00;;;;;;5095954;28;19961;-75
2021/12/16 04:07:36;;;;;;;;;;;27.30;91.10;;;;;;5095935;28;19946;-75
2021/12/16 04:10:04;;;;;;;;;;;27.30;91.10;;;;;;5077976;28;19938;-75
2021/12/16 04:12:31;;;;;;;;;;;27.10;91.10;;;;;;5094678;28;20372;-75
2021/12/16 04:14:59;;;;;;;;;;;26.90;91.20;;;;;;5075323;28;19908;-75
2021/12/16 04:17:26;;;;;;;;;;;26.90;91.30;;;;;;5091245;28;19987;-75
2021/12/16 04:19:53;;;;;;;;;;;26.80;91.80;;;;;;5075480;28;19950;-75
2021/12/16 04:22:32;;;;;;;;;;;26.70;92.20;;;;;;5075540;28;19977;-75
2021/12/16 04:25:02;;;;;;;;;;;27.10;91.60;;;;;;5074152;28;19940;-74
2021/12/16 04:27:29;;;;;;;;;;;26.90;91.50;;;;;;5075632;28;19916;-74
2021/12/16 04:29:56;;;;;;;;;;;26.80;91.70;;;;;;5075361;28;20031;-75
2021/12/16 04:32:22;;;;;;;;;;;26.40;91.50;;;;;;5075002;28;19916;-75
2021/12/16 04:34:49;;;;;;;;;;;26.40;91.80;;;;;;5074907;28;19908;-74
2021/12/16 04:37:16;;;;;;;;;;;26.40;91.90;;;;;;5075378;28;20002;-74
2021/12/16 04:39:43;;;;;;;;;;;26.60;91.50;;;;;;5090756;28;19913;-74
2021/12/16 04:42:11;;;;;;;;;;;26.40;91.60;;;;;;5075059;28;20261;-75
2021/12/16 04:44:38;;;;;;;;;;;26.30;91.60;;;;;;5075096;28;19912;-74
2021/12/16 04:47:05;;;;;;;;;;;26.10;91.80;;;;;;5090772;28;19909;-74
2021/12/16 04:49:32;;;;;;;;;;;25.80;91.60;;;;;;5074125;28;19919;-74
2021/12/16 04:51:59;;;;;;;;;;;25.50;92.00;;;;;;5074856;28;20368;-74
2021/12/16 04:54:29;;;;;;;;;;;25.30;92.20;;;;;;5106999;28;20388;-76
2021/12/16 04:56:56;;;;;;;;;;;25.20;92.20;;;;;;5074945;28;19909;-74
2021/12/16 04:59:23;;;;;;;;;;;25.20;92.30;;;;;;5074819;28;19908;-75
2021/12/16 05:01:51;;;;;;;;;;;25.00;92.00;;;;;;5073364;28;20379;-73
2021/12/16 05:04:18;;;;;;;;;;;24.70;92.40;;;;;;5074616;28;19908;-75
2021/12/16 05:06:45;;;;;;;;;;;24.50;92.40;;;;;;5074478;28;19930;-75
2021/12/16 05:09:23;;;;;;;;;;;24.40;92.80;;;;;;5074207;28;20015;-75
2021/12/16 05:11:50;;;;;;;;;;;24.20;92.70;;;;;;5088541;28;19909;-75
2021/12/16 05:14:19;;;;;;;;;;;24.10;92.60;;;;;;5073063;28;19912;-75
2021/12/16 05:16:46;;;;;;;;;;;23.90;92.90;;;;;;5072847;28;20499;-75
2021/12/16 05:19:13;;;;;;;;;;;23.80;93.10;;;;;;5072762;28;19912;-74
2021/12/16 05:24:17;;;;;;;;;;;23.50;93.30;;;;;;5070110;28;19912;-76
2021/12/16 05:26:45;;;;;;;;;;;23.40;93.30;;;;;;5071245;28;20306;-76
2021/12/16 05:29:11;;;;;;;;;;;23.40;93.30;;;;;;5072983;28;19908;-75
2021/12/16 05:31:38;;;;;;;;;;;23.40;93.20;;;;;;5072905;28;20326;-76
2021/12/16 05:34:05;;;;;;;;;;;23.40;93.30;;;;;;5072594;28;19909;-77
2021/12/16 05:36:32;;;;;;;;;;;23.30;93.20;;;;;;5073436;28;19997;-76
2021/12/16 05:38:59;;;;;;;;;;;23.30;93.50;;;;;;5073045;28;19915;-78
2021/12/16 05:41:27;;;;;;;;;;;23.40;93.50;;;;;;5072899;28;19909;-76
2021/12/16 05:43:54;;;;;;;;;;;23.40;93.40;;;;;;5072497;28;19999;-73
2021/12/16 05:46:21;;;;;;;;;;;23.30;93.30;;;;;;5071704;28;20039;-73
2021/12/16 05:48:49;;;;;;;;;;;23.20;93.50;;;;;;5070565;28;20343;-79
2021/12/16 05:51:21;;;;;;;;;;;23.10;93.50;;;;;;5072556;28;19912;-76
2021/12/16 05:53:48;;;;;;;;;;;23.00;93.70;;;;;;5075022;28;19916;-79
2021/12/16 05:56:15;;;;;;;;;;;22.90;93.90;;;;;;5092599;28;20414;-78
2021/12/16 05:58:42;;;;;;;;;;;22.80;93.90;;;;;;5092424;28;19970;-79
2021/12/16 06:01:10;;;;;;;;;;;22.80;94.00;;;;;;5093496;28;20019;-76
2021/12/16 06:03:37;;;;;;;;;;;22.80;94.20;;;;;;5093949;28;20011;-75
2021/12/16 06:06:04;;;;;;;;;;;22.80;94.00;;;;;;5093732;28;19908;-71
2021/12/16 06:08:31;;;;;;;;;;;22.80;94.00;;;;;;5092594;28;19912;-79
2021/12/16 06:11:15;;;;;;;;;;;22.80;94.10;;;;;;5093197;28;20361;-78
2021/12/16 06:13:48;;;;;;;;;;;22.80;94.20;;;;;;5095111;28;20437;-81
2021/12/16 06:27:16;;;;;;;;;;;22.40;94.40;;;;;;5093639;28;19942;-80
2021/12/16 06:29:45;;;;;;;;;;;22.40;94.60;;;;;;5093644;28;20276;-80
2021/12/16 06:32:11;;;;;;;;;;;22.40;94.50;;;;;;5109198;28;19919;-80
2021/12/16 06:34:38;;;;;;;;;;;22.30;94.50;;;;;;5092243;28;19939;-81
2021/12/16 06:37:05;;;;;;;;;;;22.30;94.50;;;;;;5075047;28;19912;-80
2021/12/16 06:39:32;;;;;;;;;;;22.20;94.50;;;;;;5093377;28;19912;-81
2021/12/16 06:41:59;;;;;;;;;;;22.20;94.60;;;;;;5093305;28;19919;-79
2021/12/16 06:44:35;;;;;;;;;;;22.20;94.70;;;;;;5093479;28;20326;-79
2021/12/16 06:47:07;;;;;;;;;;;22.20;94.60;;;;;;5074983;28;19951;-79
2021/12/16 06:49:36;;;;;;;;;;;22.20;94.60;;;;;;5092347;28;19916;-78
2021/12/16 06:52:05;;;;;;;;;;;22.10;94.70;;;;;;5074179;28;20003;-78
2021/12/16 06:54:39;;;;;;;;;;;22.00;94.90;;;;;;5091020;28;19973;-79
2021/12/16 06:57:21;;;;;;;;;;;21.90;94.90;;;;;;5093230;28;19995;-79
2021/12/16 07:00:03;;;;;;;;;;;21.90;95.10;;;;;;5074992;28;19909;-80
2021/12/16 07:02:56;;;;;;;;;;;21.80;95.20;;;;;;5075269;28;19915;-79
2021/12/16 07:05:24;;;;;;;;;;;21.70;95.30;;;;;;5093185;28;19918;-81
2021/12/16 07:07:51;;;;;;;;;;;21.70;95.30;;;;;;5075234;28;19909;-80
2021/12/16 07:10:19;;;;;;;;;;;21.60;95.50;;;;;;5092939;28;20011;-80
2021/12/16 07:12:49;;;;;;;;;;;21.60;95.50;;;;;;5094464;28;19908;-82
2021/12/16 07:15:18;;;;;;;;;;;21.60;95.60;;;;;;5079850;28;20006;-79
2021/12/16 07:17:44;;;;;;;;;;;21.60;95.40;;;;;;5041813;28;19909;-82
2021/12/16 07:20:13;;;;;;;;;;;21.60;95.50;;;;;;5058665;28;20281;-81
2021/12/16 07:22:39;;;;;;;;;;;21.60;95.50;;;;;;5076291;28;19915;-80
2021/12/16 07:25:07;;;;;;;;;;;21.60;95.50;;;;;;5058653;28;19986;-80
2021/12/16 07:27:35;;;;;;;;;;;21.60;95.50;;;;;;5075521;28;19909;-79
2021/12/16 07:30:04;;;;;;;;;;;21.60;95.50;;;;;;5076401;28;19913;-78
2021/12/16 07:32:31;;;;;;;;;;;21.50;95.70;;;;;;5076019;28;20019;-79
2021/12/16 07:34:58;;;;;;;;;;;21.50;95.80;;;;;;5076372;28;19908;-78
2021/12/16 07:37:25;;;;;;;;;;;21.50;95.90;;;;;;5076175;28;19919;-78
2021/12/16 07:39:52;;;;;;;;;;;21.50;95.70;;;;;;5058864;28;19978;-80
2021/12/16 07:42:27;;;;;;;;;;;21.50;95.70;;;;;;5076154;28;20365;-78
2021/12/16 07:44:54;;;;;;;;;;;21.50;95.70;;;;;;5058340;28;19908;-80
2021/12/16 07:47:21;;;;;;;;;;;21.50;95.70;;;;;;5076474;28;19908;-79
2021/12/16 07:49:48;;;;;;;;;;;21.40;95.70;;;;;;5075780;28;19912;-80
2021/12/16 07:52:16;;;;;;;;;;;21.40;95.60;;;;;;5075819;28;19926;-80
2021/12/16 07:54:43;;;;;;;;;;;21.40;95.70;;;;;;5075765;28;20426;-78
2021/12/16 07:57:10;;;;;;;;;;;21.40;95.60;;;;;;5075765;28;19923;-79
2021/12/16 07:59:37;;;;;;;;;;;21.40;95.60;;;;;;5075682;28;19951;-78
2021/12/16 08:02:07;;;;;;;;;;;21.40;95.40;;;;;;5077652;28;19913;-78
2021/12/16 08:04:40;;;;;;;;;;;21.40;95.50;;;;;;5085000;28;20012;-78
2021/12/16 08:07:08;;;;;;;;;;;21.40;95.50;;;;;;5075477;28;20284;-79
2021/12/16 08:09:36;;;;;;;;;;;21.40;95.20;;;;;;5083423;28;20278;-80
2021/12/16 08:12:03;;;;;;;;;;;21.40;95.20;;;;;;5095769;28;19919;-80
2021/12/16 08:14:30;;;;;;;;;;;21.30;95.30;;;;;;5095750;28;20368;-80
2021/12/16 08:16:57;;;;;;;;;;;21.30;95.30;;;;;;5077471;28;20003;-79
2021/12/16 08:19:24;;;;;;;;;;;21.30;95.30;;;;;;5094023;28;19916;-81
2021/12/16 08:21:51;;;;;;;;;;;21.40;95.30;;;;;;5095564;28;19908;-81
2021/12/16 08:24:18;;;;;;;;;;;21.40;95.10;;;;;;5095732;28;19915;-80
2021/12/16 08:26:45;;;;;;;;;;;21.30;95.20;;;;;;5095250;28;20367;-80
2021/12/16 08:29:12;;;;;;;;;;;21.30;95.20;;;;;;5095505;28;20433;-80
2021/12/16 08:31:39;;;;;;;;;;;21.40;95.20;;;;;;5095266;28;19978;-80
2021/12/16 08:34:06;;;;;;;;;;;21.40;95.30;;;;;;5077121;28;19961;-80
2021/12/16 08:36:34;;;;;;;;;;;21.40;95.30;;;;;;5077037;28;19924;-75
2021/12/16 08:39:01;;;;;;;;;;;21.40;95.00;;;;;;5077095;28;19908;-77
2021/12/16 08:41:29;;;;;;;;;;;21.40;95.10;;;;;;5077152;28;19915;-74
2021/12/16 08:43:56;;;;;;;;;;;21.40;94.90;;;;;;5095184;28;19908;-76
2021/12/16 08:46:24;;;;;;;;;;;21.30;95.10;;;;;;5096286;28;20253;-75
2021/12/16 08:48:51;;;;;;;;;;;21.30;95.10;;;;;;5095223;28;19908;-75
2021/12/16 08:51:19;;;;;;;;;;;21.30;95.00;;;;;;5095911;28;20295;-78
2021/12/16 08:53:45;;;;;;;;;;;21.30;95.10;;;;;;5076582;28;19916;-75
2021/12/16 08:56:13;;;;;;;;;;;21.30;95.10;;;;;;5094831;28;19942;-79
2021/12/16 08:58:40;;;;;;;;;;;21.20;95.20;;;;;;5094600;28;19995;-78
2021/12/16 09:01:11;;;;;;;;;;;21.20;95.20;;;;;;5094688;28;19970;-77
2021/12/16 09:03:38;;;;;;;;;;;21.20;95.20;;;;;;5094597;28;20288;-77
2021/12/16 09:06:05;;;;;;;;;;;21.20;95.30;;;;;;5094609;28;20284;-76
2021/12/16 09:08:32;;;;;;;;;;;21.00;95.50;;;;;;5088076;28;20368;-80
2021/12/16 09:11:03;;;;;;;;;;;21.00;95.60;;;;;;5093516;28;20019;-82
2021/12/16 09:13:30;;;;;;;;;;;21.10;95.50;;;;;;5094719;28;20007;-77
2021/12/16 09:16:00;;;;;;;;;;;21.10;95.60;;;;;;5076589;28;19908;-76
2021/12/16 09:18:28;;;;;;;;;;;21.10;95.60;;;;;;5096281;28;20360;-78
2021/12/16 09:20:56;;;;;;;;;;;21.10;95.50;;;;;;5076715;28;19908;-80
2021/12/16 09:23:23;;;;;;;;;;;21.20;95.70;;;;;;5094515;28;19934;-80
2021/12/16 09:25:50;;;;;;;;;;;21.10;95.70;;;;;;5094384;28;19915;-73
2021/12/16 09:28:17;;;;;;;;;;;21.10;95.60;;;;;;5094414;28;19909;-77
2021/12/16 09:30:47;;;;;;;;;;;21.10;95.60;;;;;;5076013;28;19950;-75
2021/12/16 09:33:16;;;;;;;;;;;21.10;95.70;;;;;;5094035;28;19908;-77
2021/12/16 09:35:47;;;;;;;;;;;21.00;95.70;;;;;;5075519;28;19921;-79
2021/12/16 09:38:14;;;;;;;;;;;21.00;95.70;;;;;;5094064;28;19912;-79
2021/12/16 09:40:47;;;;;;;;;;;21.00;95.90;;;;;;5094498;28;19908;-78
2021/12/16 09:43:14;;;;;;;;;;;21.00;95.90;;;;;;5075941;28;19993;-75
2021/12/16 09:45:41;;;;;;;;;;;21.00;96.00;;;;;;5094357;28;19919;-83
2021/12/16 09:48:08;;;;;;;;;;;21.00;96.00;;;;;;5094432;28;20295;-82
2021/12/16 09:50:35;;;;;;;;;;;21.00;95.90;;;;;;5094226;28;19919;-82
2021/12/16 09:53:02;;;;;;;;;;;20.90;96.00;;;;;;5076257;28;20011;-81
2021/12/16 09:55:33;;;;;;;;;;;20.90;96.00;;;;;;5074247;28;19947;-84
2021/12/16 09:58:00;;;;;;;;;;;20.90;96.10;;;;;;5074058;28;19971;-82
2021/12/16 10:00:28;;;;;;;;;;;20.90;96.10;;;;;;5073814;28;19909;-82
2021/12/16 10:02:55;;;;;;;;;;;20.80;96.00;;;;;;5074103;28;19909;-81
2021/12/16 10:05:22;;;;;;;;;;;20.80;96.10;;;;;;5073496;28;19909;-81
2021/12/16 10:07:49;;;;;;;;;;;20.80;96.20;;;;;;5063877;28;19919;-78
2021/12/16 10:10:20;;;;;;;;;;;20.80;96.20;;;;;;5066290;28;19928;-74
2021/12/16 10:12:50;;;;;;;;;;;20.90;96.10;;;;;;5072104;28;19974;-78
2021/12/16 10:18:02;;;;;;;;;;;20.90;96.10;;;;;;5073991;28;19915;-82
2021/12/16 10:20:33;;;;;;;;;;;20.90;96.00;;;;;;5063039;28;19909;-79
2021/12/16 10:23:16;;;;;;;;;;;20.90;96.20;;;;;;5071760;28;20277;-82
2021/12/16 10:25:43;;;;;;;;;;;20.90;96.30;;;;;;5073486;28;19919;-83
2021/12/16 10:28:10;;;;;;;;;;;20.90;96.20;;;;;;5073740;28;20018;-83
2021/12/16 10:30:44;;;;;;;;;;;20.80;96.30;;;;;;5073472;28;19912;-83
2021/12/16 10:33:22;;;;;;;;;;;20.80;96.40;;;;;;5073421;28;19931;-83
2021/12/16 10:35:49;;;;;;;;;;;20.70;96.60;;;;;;5072226;28;19958;-83
2021/12/16 10:38:17;;;;;;;;;;;20.70;97.00;;;;;;5073370;28;19908;-84
2021/12/16 10:40:46;;;;;;;;;;;20.60;97.00;;;;;;5072137;28;19908;-76
2021/12/16 10:43:24;;;;;;;;;;;20.60;97.00;;;;;;5073027;28;19908;-82
2021/12/16 10:45:52;;;;;;;;;;;20.60;97.10;;;;;;5072138;28;19955;-76
2021/12/16 10:48:23;;;;;;;;;;;20.50;97.20;;;;;;5075267;28;19998;-84
2021/12/16 10:51:10;;;;;;;;;;;20.50;97.20;;;;;;5076971;28;20304;-78
2021/12/16 10:53:55;;;;;;;;;;;20.50;97.30;;;;;;5076846;28;19913;-78
2021/12/16 10:56:31;;;;;;;;;;;20.50;97.10;;;;;;5077152;28;20055;-81
2021/12/16 10:59:00;;;;;;;;;;;20.50;96.90;;;;;;5077191;28;19915;-81
2021/12/16 11:01:42;;;;;;;;;;;20.50;97.20;;;;;;5077229;28;19909;-80
2021/12/16 11:04:21;;;;;;;;;;;20.50;96.90;;;;;;5077065;28;19909;-81
2021/12/16 11:06:49;;;;;;;;;;;20.50;96.70;;;;;;5077098;28;20280;-77
2021/12/16 11:09:30;;;;;;;;;;;20.50;96.70;;;;;;5070661;28;19909;-77
2021/12/16 11:12:05;;;;;;;;;;;20.50;96.50;;;;;;5056631;28;19909;-77
2021/12/16 11:14:32;;;;;;;;;;;20.50;96.60;;;;;;5056523;28;19905;-76
2021/12/16 11:16:59;;;;;;;;;;;20.50;96.50;;;;;;5056595;28;19959;-76
2021/12/16 11:19:43;;;;;;;;;;;20.50;96.40;;;;;;5060002;28;19963;-76
2021/12/16 11:22:10;;;;;;;;;;;20.50;96.50;;;;;;5056503;28;19955;-74
2021/12/16 11:24:36;;;;;;;;;;;20.50;96.60;;;;;;5056762;28;19909;-76
2021/12/16 11:27:19;;;;;;;;;;;20.50;96.60;;;;;;5056452;28;20443;-73
2021/12/16 11:29:46;;;;;;;;;;;20.40;96.60;;;;;;5047691;28;20318;-85
2021/12/16 11:32:31;;;;;;;;;;;20.40;96.70;;;;;;5064993;28;19959;-82
2021/12/16 11:34:58;;;;;;;;;;;20.30;96.70;;;;;;5056405;28;19916;-82
2021/12/16 11:37:24;;;;;;;;;;;20.30;96.60;;;;;;5056420;28;19916;-78
2021/12/16 11:39:51;;;;;;;;;;;20.30;96.60;;;;;;5056172;28;19912;-74
2021/12/16 11:45:03;;;;;;;;;;;20.20;96.80;;;;;;5055437;28;19915;-79
2021/12/16 11:47:30;;;;;;;;;;;20.30;96.80;;;;;;5060176;28;19913;-79
2021/12/16 11:49:59;;;;;;;;;;;20.30;96.60;;;;;;5071546;28;19967;-81
2021/12/16 11:52:29;;;;;;;;;;;20.30;96.60;;;;;;5073284;28;19908;-80
2021/12/16 11:55:04;;;;;;;;;;;20.40;96.50;;;;;;5055697;28;19924;-78
2021/12/16 11:57:35;;;;;;;;;;;20.30;96.20;;;;;;5054699;28;19909;-78
2021/12/16 12:00:07;;;;;;;;;;;20.40;96.20;;;;;;5055356;28;19909;-78
2021/12/16 12:02:37;;;;;;;;;;;20.40;96.10;;;;;;5065228;28;20269;-78
2021/12/16 12:05:22;;;;;;;;;;;20.40;96.20;;;;;;5069813;28;19918;-78
2021/12/16 12:07:49;;;;;;;;;;;20.40;96.20;;;;;;5072935;28;19995;-77
2021/12/16 12:10:23;;;;;;;;;;;20.40;96.10;;;;;;5065180;28;20067;-78
2021/12/16 12:12:49;;;;;;;;;;;20.50;96.10;;;;;;5072336;28;19917;-77
2021/12/16 12:15:17;;;;;;;;;;;20.50;96.20;;;;;;5073555;28;20056;-74
2021/12/16 12:17:44;;;;;;;;;;;20.40;96.20;;;;;;5075386;28;19923;-79
2021/12/16 12:20:11;;;;;;;;;;;20.40;96.00;;;;;;5075304;28;19914;-79
2021/12/16 12:22:37;;;;;;;;;;;20.40;96.00;;;;;;5075237;28;19909;-78
2021/12/16 12:25:04;;;;;;;;;;;20.40;96.10;;;;;;5074156;28;20424;-80
2021/12/16 12:27:31;;;;;;;;;;;20.40;96.20;;;;;;5075116;28;19908;-79
2021/12/16 12:30:02;;;;;;;;;;;20.30;96.30;;;;;;5075064;28;20257;-78
2021/12/16 12:32:35;;;;;;;;;;;20.30;96.30;;;;;;5075074;28;19908;-79
2021/12/16 12:35:02;;;;;;;;;;;20.30;96.40;;;;;;5074983;28;19959;-79
2021/12/16 12:37:29;;;;;;;;;;;20.30;96.40;;;;;;5074899;28;19996;-79
2021/12/16 12:40:00;;;;;;;;;;;20.40;96.20;;;;;;5074994;28;19908;-79
2021/12/16 12:42:29;;;;;;;;;;;20.40;96.20;;;;;;5073743;28;20322;-79
2021/12/16 12:44:55;;;;;;;;;;;20.30;96.20;;;;;;5075170;28;19908;-79
2021/12/16 12:50:08;;;;;;;;;;;20.40;96.20;;;;;;5073896;28;19919;-79
2021/12/16 12:52:36;;;;;;;;;;;20.40;96.20;;;;;;5074699;28;20372;-79
2021/12/16 12:55:19;;;;;;;;;;;20.40;96.00;;;;;;5074492;28;20399;-80
2021/12/16 12:57:46;;;;;;;;;;;20.40;96.10;;;;;;5072671;28;19991;-79
2021/12/16 13:00:25;;;;;;;;;;;20.30;96.00;;;;;;5056618;28;19912;-79
2021/12/16 13:02:59;;;;;;;;;;;20.30;96.00;;;;;;5074415;28;20007;-79
2021/12/16 13:05:26;;;;;;;;;;;20.40;96.00;;;;;;5074470;28;20003;-78
2021/12/16 13:07:54;;;;;;;;;;;20.40;95.80;;;;;;5074388;28;19908;-78
2021/12/16 13:10:22;;;;;;;;;;;20.40;95.90;;;;;;5073534;28;19917;-77
2021/12/16 13:13:03;;;;;;;;;;;20.40;95.90;;;;;;5074227;28;20357;-78
2021/12/16 13:15:47;;;;;;;;;;;20.40;96.00;;;;;;5073229;28;19995;-77
2021/12/16 13:26:28;;;;;;;;;;;20.40;95.90;;;;;;5052966;28;19909;-77
2021/12/16 13:29:02;;;;;;;;;;;20.40;95.80;;;;;;5053482;28;19944;-77
2021/12/16 13:31:33;;;;;;;;;;;20.40;95.40;;;;;;5054775;28;19913;-78
2021/12/16 13:34:01;;;;;;;;;;;20.40;95.50;;;;;;5072783;28;19970;-78
2021/12/16 13:36:40;;;;;;;;;;;20.40;95.50;;;;;;5073372;28;19912;-78
2021/12/16 13:39:11;;;;;;;;;;;20.40;95.50;;;;;;5073704;28;19915;-76
2021/12/16 13:41:38;;;;;;;;;;;20.40;95.70;;;;;;5073719;28;19915;-77
2021/12/16 13:44:09;;;;;;;;;;;20.30;96.00;;;;;;5072221;28;19908;-78
2021/12/16 13:46:59;;;;;;;;;;;20.30;96.10;;;;;;5073665;28;19909;-78
2021/12/16 14:03:43;;;;;;;;;;;20.30;96.20;;;;;;5073340;28;19913;-77
2021/12/16 14:06:17;;;;;;;;;;;20.30;96.30;;;;;;5072370;28;19908;-78
2021/12/16 14:08:46;;;;;;;;;;;20.30;96.30;;;;;;5071882;28;20361;-77
2021/12/16 14:14:41;;;;;;;;;;;20.30;96.30;;;;;;5073277;28;20399;-78
2021/12/16 14:17:27;;;;;;;;;;;20.30;96.10;;;;;;5072193;28;19948;-79
2021/12/16 14:23:06;;;;;;;;;;;20.20;96.10;;;;;;5072033;28;19915;-79
2021/12/16 14:44:18;;;;;;;;;;;20.00;96.80;;;;;;5071966;28;20075;-78
2021/12/16 14:47:00;;;;;;;;;;;20.00;96.90;;;;;;5057918;28;20456;-78
2021/12/16 14:49:35;;;;;;;;;;;20.00;97.00;;;;;;5071779;28;19909;-78
2021/12/16 14:52:02;;;;;;;;;;;20.00;97.10;;;;;;5072857;28;20407;-78
2021/12/16 14:54:34;;;;;;;;;;;20.00;97.10;;;;;;5071578;28;19924;-78
2021/12/16 14:57:01;;;;;;;;;;;19.90;97.20;;;;;;5072863;28;20443;-78
2021/12/16 14:59:30;;;;;;;;;;;19.90;97.40;;;;;;5072891;28;20047;-78
2021/12/16 15:02:00;;;;;;;;;;;19.90;97.40;;;;;;5072670;28;19909;-78
2021/12/16 15:04:29;;;;;;;;;;;19.90;97.40;;;;;;5072826;28;19909;-78
2021/12/16 15:07:01;;;;;;;;;;;19.90;97.40;;;;;;5072733;28;19908;-78
2021/12/16 15:09:31;;;;;;;;;;;19.90;97.50;;;;;;5072640;28;20419;-79
2021/12/16 15:12:29;;;;;;;;;;;19.80;97.70;;;;;;5072682;28;19986;-78
2021/12/16 15:15:09;;;;;;;;;;;19.80;97.70;;;;;;5072485;28;20384;-78
2021/12/16 15:39:55;;;;;;;;;;;19.70;98.30;;;;;;5076320;28;20400;-78
2021/12/16 15:45:25;;;;;;;;;;;19.60;98.40;;;;;;5076006;28;19915;-78
2021/12/16 15:47:56;;;;;;;;;;;19.70;98.50;;;;;;5075905;28;19909;-78
2021/12/16 15:50:25;;;;;;;;;;;19.60;98.50;;;;;;5075831;28;19912;-78
2021/12/16 15:52:52;;;;;;;;;;;19.70;98.60;;;;;;5074450;28;19908;-78
2021/12/16 15:55:30;;;;;;;;;;;19.70;98.60;;;;;;5074543;28;20389;-78
2021/12/16 15:58:04;;;;;;;;;;;19.70;98.50;;;;;;5074478;28;19913;-79
2021/12/16 16:00:31;;;;;;;;;;;19.70;98.50;;;;;;5074461;28;19915;-78
2021/12/16 16:02:58;;;;;;;;;;;19.70;98.50;;;;;;5074521;28;19908;-79
2021/12/16 16:05:30;;;;;;;;;;;19.70;98.60;;;;;;5074476;28;19919;-79
2021/12/16 16:08:00;;;;;;;;;;;19.70;98.60;;;;;;5074384;28;19909;-79
2021/12/16 16:10:27;;;;;;;;;;;19.60;98.60;;;;;;5074350;28;20294;-78
2021/12/16 16:12:54;;;;;;;;;;;19.60;98.70;;;;;;5074543;28;19920;-79
2021/12/16 16:15:23;;;;;;;;;;;19.60;98.70;;;;;;5074323;28;19987;-79
2021/12/16 16:18:15;;;;;;;;;;;19.60;98.60;;;;;;5074226;28;19916;-78
2021/12/16 16:20:43;;;;;;;;;;;19.60;98.70;;;;;;5074315;28;19916;-77
2021/12/16 16:23:10;;;;;;;;;;;19.60;98.70;;;;;;5072866;28;20341;-77
2021/12/16 16:25:37;;;;;;;;;;;19.60;98.60;;;;;;5072875;28;19909;-78
2021/12/16 16:28:04;;;;;;;;;;;19.60;98.60;;;;;;5074112;28;20003;-78
2021/12/16 16:30:31;;;;;;;;;;;19.60;98.50;;;;;;5072982;28;20371;-78
2021/12/16 16:33:07;;;;;;;;;;;19.70;98.60;;;;;;5073905;28;19909;-78
2021/12/16 16:35:35;;;;;;;;;;;19.60;98.60;;;;;;5072777;28;19919;-78
2021/12/16 16:38:12;;;;;;;;;;;19.70;98.20;;;;;;5073775;28;19912;-78
2021/12/16 16:40:40;;;;;;;;;;;19.70;98.10;;;;;;5073985;28;19914;-78
2021/12/16 16:43:20;;;;;;;;;;;19.60;98.20;;;;;;5070908;28;19913;-79
2021/12/16 16:45:48;;;;;;;;;;;19.60;98.30;;;;;;5052525;28;19944;-78
2021/12/16 16:48:28;;;;;;;;;;;19.60;98.40;;;;;;5052657;28;20368;-78
2021/12/16 16:51:02;;;;;;;;;;;19.60;98.30;;;;;;5053622;28;19920;-78
2021/12/16 16:53:29;;;;;;;;;;;19.60;98.40;;;;;;4895515;28;4509938;-77
2021/12/16 16:55:56;;;;;;;;;;;19.60;98.60;;;;;;5054669;28;19923;-78
2021/12/16 16:58:23;;;;;;;;;;;19.50;98.70;;;;;;5054459;28;19909;-78
2021/12/16 17:00:50;;;;;;;;;;;19.50;98.60;;;;;;5054583;28;19909;-78
2021/12/16 17:03:18;;;;;;;;;;;19.50;98.60;;;;;;5054437;28;20424;-78
2021/12/16 17:05:47;;;;;;;;;;;19.50;98.80;;;;;;5054477;28;19909;-78
2021/12/16 17:08:21;;;;;;;;;;;19.50;98.80;;;;;;5054332;28;19968;-78
2021/12/16 17:10:52;;;;;;;;;;;19.50;98.80;;;;;;5054301;28;19919;-78
2021/12/16 17:13:23;;;;;;;;;;;19.50;99.00;;;;;;5054289;28;20326;-78
2021/12/16 17:18:22;;;;;;;;;;;19.50;98.90;;;;;;5054106;28;19913;-78
2021/12/16 17:20:50;;;;;;;;;;;19.50;99.00;;;;;;5054063;28;20400;-78
2021/12/16 17:23:17;;;;;;;;;;;19.50;99.00;;;;;;5054065;28;19916;-79
2021/12/16 17:25:44;;;;;;;;;;;19.50;99.00;;;;;;5054218;28;19913;-79
2021/12/16 17:28:10;;;;;;;;;;;19.50;99.00;;;;;;5054317;28;20369;-79
2021/12/16 17:30:41;;;;;;;;;;;19.50;99.00;;;;;;5052656;28;19913;-79
2021/12/16 17:33:11;;;;;;;;;;;19.50;99.10;;;;;;5052766;28;19909;-78
2021/12/16 17:35:38;;;;;;;;;;;19.50;99.20;;;;;;5053861;28;19954;-78
2021/12/16 17:38:13;;;;;;;;;;;19.50;99.30;;;;;;5053976;28;19909;-78
2021/12/16 17:40:41;;;;;;;;;;;19.50;99.40;;;;;;5053867;28;19909;-79
2021/12/16 17:43:10;;;;;;;;;;;19.50;99.30;;;;;;5053635;28;20329;-78
2021/12/16 17:48:26;;;;;;;;;;;19.50;99.20;;;;;;5053664;28;19967;-76
2021/12/16 17:50:54;;;;;;;;;;;19.50;99.00;;;;;;5053540;28;19912;-76
2021/12/16 17:53:21;;;;;;;;;;;19.50;99.00;;;;;;5053365;28;19915;-76
2021/12/16 17:55:52;;;;;;;;;;;19.50;99.10;;;;;;5053454;28;19912;-77
2021/12/16 17:58:22;;;;;;;;;;;19.50;99.10;;;;;;5052998;28;20003;-77